Time;durP1;ratioP1;P1;durP2;ratioP2;P2;SDS_P1;SDS_P2;PMS_P1;PMS_P2;Temp;Humidity;BMP_temperature;BMP_pressure;BME280_temperature;BME280_humidity;BME280_pressure;Samples;Min_cycle;Max_cycle;Signal;HPM_P1;HPM_P2
2022/07/26 00:00:51;;;;;;;;;;;;;;;25.92;82.94;98637.03;5050606;28;19924;-50
2022/07/26 00:03:16;;;;;;;;;;;;;;;25.26;86.98;98647.06;5051478;28;19931;-49
2022/07/26 00:05:42;;;;;;;;;;;;;;;25.50;87.61;98643.81;5051487;28;19917;-51
2022/07/26 00:08:10;;;;;;;;;;;;;;;25.17;88.84;98640.84;5050126;28;19920;-50
2022/07/26 00:10:40;;;;;;;;;;;;;;;25.78;86.32;98641.84;5052671;28;20354;-51
2022/07/26 00:13:05;;;;;;;;;;;;;;;24.71;90.80;98653.25;5035120;28;19943;-49
2022/07/26 00:15:30;;;;;;;;;;;;;;;25.69;89.21;98645.44;5052297;28;19921;-50
2022/07/26 00:17:56;;;;;;;;;;;;;;;26.14;85.88;98641.78;5052889;28;19968;-50
2022/07/26 00:20:21;;;;;;;;;;;;;;;25.47;86.45;98641.47;5051720;28;19923;-49
2022/07/26 00:22:46;;;;;;;;;;;;;;;26.27;85.55;98636.91;5053206;28;19928;-52
2022/07/26 00:25:11;;;;;;;;;;;;;;;26.55;83.72;98644.63;5050951;28;19921;-51
2022/07/26 00:27:37;;;;;;;;;;;;;;;25.99;85.93;98645.97;5051940;28;19932;-52
2022/07/26 00:30:05;;;;;;;;;;;;;;;26.13;85.07;98648.03;5050550;28;19927;-50
2022/07/26 00:32:31;;;;;;;;;;;;;;;25.88;84.38;98637.31;5052506;28;19921;-48
2022/07/26 00:34:56;;;;;;;;;;;;;;;25.69;86.92;98650.69;5050672;28;19931;-52
2022/07/26 00:37:21;;;;;;;;;;;;;;;25.84;87.23;98646.53;5051490;28;19920;-49
2022/07/26 00:39:47;;;;;;;;;;;;;;;25.53;90.13;98654.03;5050556;28;19920;-49
2022/07/26 00:42:12;;;;;;;;;;;;;;;25.44;90.39;98661.06;5053410;28;19921;-48
2022/07/26 00:44:42;;;;;;;;;;;;;;;26.04;88.58;98641.03;5054210;28;20909;-52
2022/07/26 00:47:07;;;;;;;;;;;;;;;26.50;85.40;98642.44;5052585;28;19932;-49
2022/07/26 00:49:32;;;;;;;;;;;;;;;26.12;86.23;98651.66;5052593;28;19920;-49
2022/07/26 00:51:57;;;;;;;;;;;;;;;26.22;87.26;98647.06;5033206;28;19969;-48
2022/07/26 00:54:23;;;;;;;;;;;;;;;26.24;86.60;98653.03;5051749;28;20019;-52
2022/07/26 00:56:48;;;;;;;;;;;;;;;26.11;86.52;98652.63;5050768;28;19917;-49
2022/07/26 00:59:13;;;;;;;;;;;;;;;26.24;86.48;98650.41;5050070;28;20010;-50
2022/07/26 01:01:38;;;;;;;;;;;;;;;25.80;87.26;98655.72;5047876;28;20007;-48
2022/07/26 01:04:04;;;;;;;;;;;;;;;26.08;87.35;98652.94;5051074;28;20094;-52
2022/07/26 01:06:29;;;;;;;;;;;;;;;25.52;90.81;98662.94;5048634;28;19916;-51
2022/07/26 01:08:54;;;;;;;;;;;;;;;25.87;88.71;98659.44;5048440;28;20445;-52
2022/07/26 01:11:20;;;;;;;;;;;;;;;25.98;87.04;98658.34;5048908;28;19985;-51
2022/07/26 01:13:46;;;;;;;;;;;;;;;26.34;86.78;98657.38;5051321;28;20113;-50
2022/07/26 01:16:11;;;;;;;;;;;;;;;26.16;87.46;98655.66;5049749;28;19928;-49
2022/07/26 01:18:36;;;;;;;;;;;;;;;25.84;88.95;98656.22;5048839;28;19920;-51
2022/07/26 01:21:02;;;;;;;;;;;;;;;26.12;87.78;98653.47;5051321;28;19920;-51
2022/07/26 01:23:28;;;;;;;;;;;;;;;25.74;89.04;98660.78;5050308;28;19921;-52
2022/07/26 01:25:53;;;;;;;;;;;;;;;25.24;92.45;98660.38;5048607;28;20979;-48
2022/07/26 01:28:18;;;;;;;;;;;;;;;25.00;95.17;98658.31;5051287;28;19920;-48
2022/07/26 01:30:44;;;;;;;;;;;;;;;25.36;92.93;98658.38;5049669;28;20003;-51
2022/07/26 01:33:09;;;;;;;;;;;;;;;24.65;96.89;98658.25;5049976;28;19920;-51
2022/07/26 01:35:34;;;;;;;;;;;;;;;24.88;96.92;98654.22;5049399;28;20385;-48
2022/07/26 01:37:59;;;;;;;;;;;;;;;25.54;93.91;98660.13;5048137;28;19967;-50
2022/07/26 01:40:25;;;;;;;;;;;;;;;25.63;92.40;98654.75;5050585;28;19994;-48
2022/07/26 01:42:50;;;;;;;;;;;;;;;25.82;90.94;98653.75;5048745;28;19924;-52
2022/07/26 01:45:15;;;;;;;;;;;;;;;26.19;88.69;98651.88;5050962;28;19924;-52
2022/07/26 01:47:40;;;;;;;;;;;;;;;24.88;93.87;98666.59;5050877;28;20023;-53
2022/07/26 01:50:06;;;;;;;;;;;;;;;25.12;91.68;98658.09;5050923;28;19968;-50
2022/07/26 01:52:33;;;;;;;;;;;;;;;25.94;89.10;98659.63;5052072;28;19916;-52
2022/07/26 01:54:58;;;;;;;;;;;;;;;25.72;87.25;98665.38;5051407;28;19920;-50
2022/07/26 01:57:23;;;;;;;;;;;;;;;25.67;89.95;98668.50;5049228;28;19921;-52
2022/07/26 01:59:49;;;;;;;;;;;;;;;25.73;89.84;98673.16;5051002;28;20389;-50
2022/07/26 02:02:14;;;;;;;;;;;;;;;25.66;88.81;98670.31;5050810;28;19924;-52
2022/07/26 02:04:57;;;;;;;;;;;;;;;25.34;92.08;98681.41;5051567;28;19927;-51
2022/07/26 02:07:23;;;;;;;;;;;;;;;25.26;89.03;98676.06;5050182;28;20310;-50
2022/07/26 02:09:48;;;;;;;;;;;;;;;25.91;88.84;98680.22;5053309;28;19955;-51
2022/07/26 02:12:13;;;;;;;;;;;;;;;25.83;89.72;98678.31;5056651;28;20039;-51
2022/07/26 02:14:38;;;;;;;;;;;;;;;25.31;92.18;98676.41;5054228;28;20007;-51
2022/07/26 02:17:04;;;;;;;;;;;;;;;25.70;88.75;98681.34;5056276;28;19920;-50
2022/07/26 02:19:30;;;;;;;;;;;;;;;25.12;90.76;98681.81;5055256;28;19916;-51
2022/07/26 02:21:55;;;;;;;;;;;;;;;25.22;91.61;98688.69;5055434;28;19924;-51
2022/07/26 02:24:20;;;;;;;;;;;;;;;24.98;93.69;98694.53;5055490;28;20400;-50
2022/07/26 02:26:45;;;;;;;;;;;;;;;25.18;91.41;98689.09;5053549;28;19925;-50
2022/07/26 02:29:11;;;;;;;;;;;;;;;24.46;96.99;98702.09;5056304;28;19924;-52
2022/07/26 02:31:36;;;;;;;;;;;;;;;24.93;95.45;98696.78;5057088;28;20437;-51
2022/07/26 02:34:01;;;;;;;;;;;;;;;24.83;95.38;98698.63;5054930;28;20437;-52
2022/07/26 02:36:26;;;;;;;;;;;;;;;24.69;97.46;98701.78;5055045;28;20344;-50
2022/07/26 02:38:52;;;;;;;;;;;;;;;24.97;95.26;98699.94;5054200;28;19921;-50
2022/07/26 02:41:17;;;;;;;;;;;;;;;24.95;94.95;98697.47;5056482;28;19920;-50
2022/07/26 02:43:42;;;;;;;;;;;;;;;24.74;95.75;98699.50;5051752;28;19917;-49
2022/07/26 02:46:08;;;;;;;;;;;;;;;24.98;95.52;98701.59;5056381;28;20023;-51
2022/07/26 02:48:33;;;;;;;;;;;;;;;25.04;95.29;98699.22;5053790;28;20559;-49
2022/07/26 02:50:58;;;;;;;;;;;;;;;24.57;96.54;98699.31;5053635;28;20191;-48
2022/07/26 02:53:24;;;;;;;;;;;;;;;24.53;97.14;98703.22;5055178;28;20039;-51
2022/07/26 02:55:49;;;;;;;;;;;;;;;24.36;99.35;98701.34;5055217;28;20043;-49
2022/07/26 02:58:14;;;;;;;;;;;;;;;24.69;98.33;98691.22;5053122;28;19966;-52
2022/07/26 03:00:40;;;;;;;;;;;;;;;24.74;96.45;98681.91;5054312;28;20289;-49
2022/07/26 03:03:05;;;;;;;;;;;;;;;24.51;98.68;98689.38;5054390;28;19982;-48
2022/07/26 03:05:30;;;;;;;;;;;;;;;24.56;96.14;98687.16;5052634;28;19920;-51
2022/07/26 03:07:55;;;;;;;;;;;;;;;24.59;98.08;98692.13;5053345;28;19931;-50
2022/07/26 03:10:21;;;;;;;;;;;;;;;23.89;100.00;98703.94;5054634;28;19974;-50
2022/07/26 03:12:46;;;;;;;;;;;;;;;23.76;100.00;98702.41;5055131;28;19924;-52
2022/07/26 03:15:11;;;;;;;;;;;;;;;23.80;100.00;98701.19;5052745;28;19927;-48
2022/07/26 03:17:37;;;;;;;;;;;;;;;24.27;100.00;98696.91;5053960;28;19924;-50
2022/07/26 03:20:03;;;;;;;;;;;;;;;24.07;100.00;98702.25;5051233;28;19979;-51
2022/07/26 03:22:28;;;;;;;;;;;;;;;24.21;99.48;98693.06;5055147;28;19925;-51
2022/07/26 03:24:54;;;;;;;;;;;;;;;24.41;98.98;98688.56;5050924;28;20392;-48
2022/07/26 03:27:19;;;;;;;;;;;;;;;23.84;100.00;98695.66;5053833;28;19951;-50
2022/07/26 03:29:44;;;;;;;;;;;;;;;24.56;98.70;98689.78;5050391;28;19928;-49
2022/07/26 03:32:09;;;;;;;;;;;;;;;24.59;99.87;98697.38;5053637;28;19924;-51
2022/07/26 03:34:35;;;;;;;;;;;;;;;23.82;100.00;98698.41;5054308;28;20448;-48
2022/07/26 03:37:00;;;;;;;;;;;;;;;23.83;100.00;98699.25;5052949;28;20035;-49
2022/07/26 03:39:25;;;;;;;;;;;;;;;24.24;99.08;98691.94;5052002;28;19924;-50
2022/07/26 03:41:50;;;;;;;;;;;;;;;23.56;100.00;98709.47;5052822;28;20011;-48
2022/07/26 03:44:15;;;;;;;;;;;;;;;24.19;100.00;98706.34;5052497;28;20020;-51
2022/07/26 03:46:41;;;;;;;;;;;;;;;24.17;100.00;98716.19;5051279;28;20476;-49
2022/07/26 03:49:06;;;;;;;;;;;;;;;24.19;100.00;98695.81;5051306;28;20076;-51
2022/07/26 03:51:32;;;;;;;;;;;;;;;24.43;100.00;98705.03;5050964;28;19918;-49
2022/07/26 03:53:58;;;;;;;;;;;;;;;24.53;100.00;98700.59;5053356;28;19974;-50
2022/07/26 03:56:32;;;;;;;;;;;;;;;24.86;98.47;98698.34;5054149;28;20015;-50
2022/07/26 03:58:59;;;;;;;;;;;;;;;23.21;100.00;98725.78;5052204;28;21034;-49
2022/07/26 04:01:25;;;;;;;;;;;;;;;23.66;100.00;98725.25;5049519;28;19997;-48
2022/07/26 04:03:51;;;;;;;;;;;;;;;23.72;100.00;98727.31;5053601;28;19913;-51
2022/07/26 04:06:16;;;;;;;;;;;;;;;23.69;100.00;98726.75;5053070;28;19924;-47
2022/07/26 04:08:41;;;;;;;;;;;;;;;23.53;100.00;98724.69;5054100;28;20674;-48
2022/07/26 04:11:07;;;;;;;;;;;;;;;23.90;100.00;98716.09;5051593;28;19927;-50
2022/07/26 04:13:32;;;;;;;;;;;;;;;23.68;100.00;98725.94;5052398;28;20043;-51
2022/07/26 04:15:57;;;;;;;;;;;;;;;23.78;100.00;98711.00;5053253;28;19920;-51
2022/07/26 04:18:22;;;;;;;;;;;;;;;23.39;100.00;98724.13;5053309;28;19921;-48
2022/07/26 04:20:47;;;;;;;;;;;;;;;23.60;100.00;98731.03;5051320;28;19971;-51
2022/07/26 04:23:13;;;;;;;;;;;;;;;23.32;100.00;98732.69;5053428;28;20077;-50
2022/07/26 04:25:38;;;;;;;;;;;;;;;22.93;100.00;98736.06;5052076;28;20435;-50
2022/07/26 04:28:04;;;;;;;;;;;;;;;23.88;100.00;98723.31;5049735;28;20015;-51
2022/07/26 04:30:29;;;;;;;;;;;;;;;24.03;100.00;98719.28;5048554;28;19947;-48
2022/07/26 04:32:54;;;;;;;;;;;;;;;23.54;100.00;98731.63;5052836;28;19969;-48
2022/07/26 04:35:19;;;;;;;;;;;;;;;24.09;100.00;98731.88;5049355;28;20345;-48
2022/07/26 04:37:45;;;;;;;;;;;;;;;24.04;100.00;98739.38;5053362;28;20015;-49
2022/07/26 04:40:11;;;;;;;;;;;;;;;23.84;100.00;98732.47;5050102;28;19958;-47
2022/07/26 04:42:36;;;;;;;;;;;;;;;23.70;100.00;98737.16;5046697;28;19928;-50
2022/07/26 04:45:02;;;;;;;;;;;;;;;23.20;100.00;98729.38;5048677;28;20015;-46
2022/07/26 04:47:27;;;;;;;;;;;;;;;23.33;100.00;98729.94;5053590;28;19916;-46
2022/07/26 04:49:53;;;;;;;;;;;;;;;23.82;100.00;98729.16;5051952;28;19927;-47
2022/07/26 04:52:18;;;;;;;;;;;;;;;23.57;100.00;98733.97;5051760;28;20015;-45
2022/07/26 04:54:43;;;;;;;;;;;;;;;23.58;100.00;98735.59;5051797;28;19951;-49
2022/07/26 04:57:08;;;;;;;;;;;;;;;23.88;100.00;98739.94;5051613;28;20884;-45
2022/07/26 04:59:33;;;;;;;;;;;;;;;23.79;100.00;98736.34;5049470;28;20433;-51
2022/07/26 05:01:59;;;;;;;;;;;;;;;23.75;100.00;98745.47;5051206;28;19935;-46
2022/07/26 05:04:25;;;;;;;;;;;;;;;24.45;100.00;98737.31;5050935;28;19920;-48
2022/07/26 05:06:50;;;;;;;;;;;;;;;24.08;100.00;98748.59;5049415;28;19920;-46
2022/07/26 05:09:15;;;;;;;;;;;;;;;24.33;100.00;98738.44;5051189;28;19971;-47
2022/07/26 05:11:40;;;;;;;;;;;;;;;23.70;100.00;98747.66;5051741;28;20362;-48
2022/07/26 05:14:06;;;;;;;;;;;;;;;23.70;100.00;98755.56;5053352;28;20400;-48
2022/07/26 05:16:31;;;;;;;;;;;;;;;23.94;100.00;98754.31;5051617;28;20331;-48
2022/07/26 05:18:56;;;;;;;;;;;;;;;23.22;100.00;98761.59;5051471;28;19959;-47
2022/07/26 05:21:21;;;;;;;;;;;;;;;23.44;100.00;98752.63;5049413;28;20637;-49
2022/07/26 05:23:47;;;;;;;;;;;;;;;23.74;100.00;98756.09;5048365;28;20397;-50
2022/07/26 05:26:12;;;;;;;;;;;;;;;22.87;100.00;98770.72;5051109;28;20451;-47
2022/07/26 05:28:38;;;;;;;;;;;;;;;23.57;100.00;98768.97;5052478;28;19916;-48
2022/07/26 05:31:03;;;;;;;;;;;;;;;23.97;100.00;98764.53;5051601;28;20675;-49
2022/07/26 05:33:28;;;;;;;;;;;;;;;23.69;100.00;98768.81;5049906;28;19921;-46
2022/07/26 05:35:54;;;;;;;;;;;;;;;23.41;100.00;98773.94;5051477;28;19923;-48
2022/07/26 05:38:19;;;;;;;;;;;;;;;24.17;100.00;98774.06;5052389;28;20278;-50
2022/07/26 05:40:44;;;;;;;;;;;;;;;24.13;100.00;98770.09;5052161;28;19963;-47
2022/07/26 05:43:10;;;;;;;;;;;;;;;24.27;100.00;98766.19;5050464;28;20041;-47
2022/07/26 05:45:35;;;;;;;;;;;;;;;23.61;100.00;98768.69;5048952;28;19972;-48
2022/07/26 05:48:00;;;;;;;;;;;;;;;24.07;100.00;98769.81;5051329;28;19920;-48
2022/07/26 05:50:25;;;;;;;;;;;;;;;24.42;100.00;98769.16;5048216;28;20545;-47
2022/07/26 05:52:51;;;;;;;;;;;;;;;23.76;100.00;98762.91;5050850;28;20765;-49
2022/07/26 05:55:16;;;;;;;;;;;;;;;23.56;100.00;98772.56;5049584;28;20031;-48
2022/07/26 05:57:41;;;;;;;;;;;;;;;23.45;100.00;98780.59;5050960;28;19966;-49
2022/07/26 06:00:08;;;;;;;;;;;;;;;23.65;100.00;98770.91;5049532;28;20374;-49
2022/07/26 06:02:33;;;;;;;;;;;;;;;22.82;100.00;98788.66;5048219;28;19921;-48
2022/07/26 06:04:58;;;;;;;;;;;;;;;23.50;100.00;98774.91;5046082;28;20021;-49
2022/07/26 06:07:23;;;;;;;;;;;;;;;23.55;100.00;98791.09;5050564;28;20007;-48
2022/07/26 06:09:49;;;;;;;;;;;;;;;23.87;100.00;98777.72;5048889;28;20019;-48
2022/07/26 06:12:14;;;;;;;;;;;;;;;23.27;100.00;98792.72;5052190;28;19959;-50
2022/07/26 06:14:39;;;;;;;;;;;;;;;23.92;100.00;98790.44;5050549;28;19951;-47
2022/07/26 06:17:04;;;;;;;;;;;;;;;23.40;100.00;98793.31;5052026;28;19920;-47
2022/07/26 06:19:30;;;;;;;;;;;;;;;24.21;100.00;98796.50;5052654;28;20368;-49
2022/07/26 06:21:55;;;;;;;;;;;;;;;23.79;100.00;98794.19;5051392;28;19924;-52
2022/07/26 06:24:20;;;;;;;;;;;;;;;24.27;100.00;98787.22;5052317;28;19974;-49
2022/07/26 06:26:48;;;;;;;;;;;;;;;23.73;100.00;98789.44;5051220;28;20022;-49
2022/07/26 06:29:13;;;;;;;;;;;;;;;22.72;100.00;98800.94;5052228;28;20810;-49
2022/07/26 06:31:38;;;;;;;;;;;;;;;23.11;100.00;98803.75;5046482;28;19935;-49
2022/07/26 06:34:04;;;;;;;;;;;;;;;23.01;100.00;98800.22;5049006;28;21003;-47
2022/07/26 06:36:29;;;;;;;;;;;;;;;23.80;100.00;98795.84;5051194;28;20722;-47
2022/07/26 06:38:54;;;;;;;;;;;;;;;24.18;100.00;98804.69;5051565;28;19917;-45
2022/07/26 06:41:19;;;;;;;;;;;;;;;24.27;100.00;98802.16;5048445;28;19921;-46
2022/07/26 06:43:44;;;;;;;;;;;;;;;24.13;100.00;98800.81;5052185;28;19946;-48
2022/07/26 06:46:10;;;;;;;;;;;;;;;24.33;100.00;98801.63;5051885;28;19946;-48
2022/07/26 06:48:35;;;;;;;;;;;;;;;24.29;100.00;98808.13;5051902;28;20359;-47
2022/07/26 06:51:00;;;;;;;;;;;;;;;24.35;100.00;98803.13;5049028;28;20643;-50
2022/07/26 06:53:25;;;;;;;;;;;;;;;25.05;100.00;98808.88;5050082;28;19967;-48
2022/07/26 06:55:51;;;;;;;;;;;;;;;25.10;100.00;98799.72;5054124;28;19968;-48
2022/07/26 06:58:16;;;;;;;;;;;;;;;24.81;100.00;98800.66;5056327;28;19963;-50
2022/07/26 07:00:41;;;;;;;;;;;;;;;24.37;100.00;98816.97;5053656;28;19916;-48
2022/07/26 07:03:06;;;;;;;;;;;;;;;24.11;100.00;98813.28;5053142;28;20060;-47
2022/07/26 07:05:32;;;;;;;;;;;;;;;24.49;100.00;98801.88;5055396;28;20480;-48
2022/07/26 07:07:57;;;;;;;;;;;;;;;23.71;100.00;98817.66;5052809;28;20006;-49
2022/07/26 07:10:22;;;;;;;;;;;;;;;24.10;100.00;98814.25;5049900;28;20052;-46
2022/07/26 07:12:48;;;;;;;;;;;;;;;24.72;100.00;98812.06;5055719;28;19999;-47
2022/07/26 07:15:13;;;;;;;;;;;;;;;24.54;100.00;98820.72;5055316;28;19920;-48
2022/07/26 07:17:38;;;;;;;;;;;;;;;24.82;100.00;98815.50;5054931;28;19921;-49
2022/07/26 07:20:04;;;;;;;;;;;;;;;24.84;100.00;98821.47;5054878;28;20003;-47
2022/07/26 07:22:30;;;;;;;;;;;;;;;24.08;100.00;98818.81;5055984;28;19924;-50
2022/07/26 07:24:55;;;;;;;;;;;;;;;24.76;100.00;98821.34;5055314;28;19948;-48
2022/07/26 07:27:20;;;;;;;;;;;;;;;25.10;100.00;98820.81;5054378;28;20041;-47
2022/07/26 07:29:45;;;;;;;;;;;;;;;25.51;100.00;98816.84;5054986;28;19962;-48
2022/07/26 07:32:11;;;;;;;;;;;;;;;25.08;100.00;98823.56;5055019;28;19950;-48
2022/07/26 07:34:36;;;;;;;;;;;;;;;25.11;100.00;98831.22;5053622;28;19963;-48
2022/07/26 07:37:03;;;;;;;;;;;;;;;24.66;100.00;98828.47;5054726;28;19917;-51
2022/07/26 07:39:28;;;;;;;;;;;;;;;24.93;100.00;98828.50;5054612;28;20347;-51
2022/07/26 07:41:53;;;;;;;;;;;;;;;25.75;100.00;98829.47;5054433;28;19920;-50
2022/07/26 07:44:19;;;;;;;;;;;;;;;26.60;100.00;98821.09;5053228;28;19920;-49
2022/07/26 07:46:44;;;;;;;;;;;;;;;25.19;100.00;98830.50;5053320;28;20777;-52
2022/07/26 07:49:09;;;;;;;;;;;;;;;24.73;100.00;98832.19;5051554;28;19920;-51
2022/07/26 07:51:34;;;;;;;;;;;;;;;26.41;100.00;98816.81;5055133;28;19916;-48
2022/07/26 07:54:00;;;;;;;;;;;;;;;26.73;100.00;98820.66;5054264;28;20075;-49
2022/07/26 07:56:25;;;;;;;;;;;;;;;26.33;100.00;98819.41;5054218;28;20386;-48
2022/07/26 07:58:50;;;;;;;;;;;;;;;26.53;100.00;98820.03;5052717;28;20021;-48
2022/07/26 08:01:15;;;;;;;;;;;;;;;26.56;100.00;98804.72;5053510;28;20021;-51
2022/07/26 08:03:40;;;;;;;;;;;;;;;26.52;100.00;98813.91;5054044;28;19964;-48
2022/07/26 08:06:06;;;;;;;;;;;;;;;25.94;100.00;98817.13;5053958;28;19920;-49
2022/07/26 08:08:32;;;;;;;;;;;;;;;25.26;100.00;98836.84;5052283;28;19934;-52
2022/07/26 08:10:57;;;;;;;;;;;;;;;26.49;100.00;98824.78;5053014;28;19970;-53
2022/07/26 08:13:22;;;;;;;;;;;;;;;25.65;100.00;98826.03;5053042;28;20093;-53
2022/07/26 08:15:51;;;;;;;;;;;;;;;26.91;100.00;98829.34;5053822;28;19976;-52
2022/07/26 08:18:16;;;;;;;;;;;;;;;26.27;100.00;98831.41;5053673;28;19927;-53
2022/07/26 08:20:41;;;;;;;;;;;;;;;25.64;100.00;98845.50;5032688;28;19920;-52
2022/07/26 08:23:06;;;;;;;;;;;;;;;27.07;100.00;98824.16;5053881;28;19927;-52
2022/07/26 08:25:32;;;;;;;;;;;;;;;26.22;100.00;98834.50;5054506;28;20301;-53
2022/07/26 08:27:57;;;;;;;;;;;;;;;25.74;100.00;98840.16;5054229;28;20315;-52
2022/07/26 08:30:22;;;;;;;;;;;;;;;27.08;100.00;98836.38;5052801;28;19939;-53
2022/07/26 08:32:47;;;;;;;;;;;;;;;27.45;100.00;98827.28;5053897;28;19962;-53
2022/07/26 08:35:13;;;;;;;;;;;;;;;26.71;100.00;98844.63;5054173;28;19981;-53
2022/07/26 08:37:38;;;;;;;;;;;;;;;27.20;100.00;98838.75;5053689;28;19962;-53
2022/07/26 08:40:04;;;;;;;;;;;;;;;28.60;100.00;98818.59;5051259;28;20582;-52
2022/07/26 08:42:29;;;;;;;;;;;;;;;28.04;100.00;98832.53;5052716;28;21033;-52
2022/07/26 08:44:54;;;;;;;;;;;;;;;26.68;100.00;98840.44;5052855;28;19972;-51
2022/07/26 08:47:20;;;;;;;;;;;;;;;27.82;100.00;98828.66;5053311;28;19939;-52
2022/07/26 08:49:45;;;;;;;;;;;;;;;28.04;100.00;98835.16;5053174;28;19920;-53
2022/07/26 08:52:11;;;;;;;;;;;;;;;28.51;100.00;98831.88;5053691;28;20137;-54
2022/07/26 08:54:41;;;;;;;;;;;;;;;26.83;100.00;98845.19;5053812;28;20516;-53
2022/07/26 08:57:06;;;;;;;;;;;;;;;27.53;100.00;98834.41;5053390;28;20956;-53
2022/07/26 08:59:31;;;;;;;;;;;;;;;28.52;100.00;98838.81;5052988;28;19999;-53
2022/07/26 09:01:58;;;;;;;;;;;;;;;28.36;100.00;98834.31;5051935;28;20540;-54
2022/07/26 09:04:30;;;;;;;;;;;;;;;28.12;100.00;98836.97;5054213;28;19962;-54
2022/07/26 09:06:56;;;;;;;;;;;;;;;28.41;100.00;98833.00;5052245;28;19916;-53
2022/07/26 09:09:22;;;;;;;;;;;;;;;27.14;100.00;98845.47;5052722;28;19928;-55
2022/07/26 09:11:47;;;;;;;;;;;;;;;25.42;100.00;98858.09;5052482;28;19921;-54
2022/07/26 09:14:12;;;;;;;;;;;;;;;27.88;100.00;98848.41;5050151;28;19921;-54
2022/07/26 09:16:38;;;;;;;;;;;;;;;27.50;100.00;98843.47;5047522;28;21165;-54
2022/07/26 09:19:15;;;;;;;;;;;;;;;26.71;100.00;98849.91;5051031;28;20632;-55
2022/07/26 09:21:40;;;;;;;;;;;;;;;28.59;98.72;98841.63;5052381;28;19932;-54
2022/07/26 09:24:06;;;;;;;;;;;;;;;27.42;100.00;98854.06;5052415;28;20014;-54
2022/07/26 09:26:31;;;;;;;;;;;;;;;27.72;100.00;98851.81;5049071;28;19966;-55
2022/07/26 09:29:02;;;;;;;;;;;;;;;28.78;96.29;98846.56;5050141;28;19920;-54
2022/07/26 09:31:27;;;;;;;;;;;;;;;29.02;96.05;98841.34;5051755;28;20564;-55
2022/07/26 09:33:53;;;;;;;;;;;;;;;29.64;92.06;98836.06;5041751;28;19924;-55
2022/07/26 09:36:18;;;;;;;;;;;;;;;28.15;96.16;98842.78;5051438;28;20370;-53
2022/07/26 09:38:45;;;;;;;;;;;;;;;28.35;97.67;98843.28;5050666;28;19978;-54
2022/07/26 09:41:20;;;;;;;;;;;;;;;27.58;99.45;98855.09;5048081;28;20357;-55
2022/07/26 09:43:46;;;;;;;;;;;;;;;27.73;93.34;98840.22;5050281;28;19931;-55
2022/07/26 09:46:11;;;;;;;;;;;;;;;28.26;94.15;98843.44;5051489;28;19916;-55
2022/07/26 09:48:39;;;;;;;;;;;;;;;28.40;90.63;98836.66;5050112;28;20094;-55
2022/07/26 09:51:05;;;;;;;;;;;;;;;29.88;85.28;98828.97;5050722;28;19917;-53
2022/07/26 09:53:40;;;;;;;;;;;;;;;29.94;86.01;98834.41;5051398;28;19920;-55
2022/07/26 09:56:05;;;;;;;;;;;;;;;30.34;82.94;98842.25;5050980;28;19924;-54
2022/07/26 09:58:31;;;;;;;;;;;;;;;27.94;86.24;98848.56;5052057;28;20240;-55
2022/07/26 10:00:56;;;;;;;;;;;;;;;30.08;83.63;98832.78;5048852;28;19928;-54
2022/07/26 10:03:21;;;;;;;;;;;;;;;31.30;80.53;98837.06;5048378;28;19972;-54
2022/07/26 10:05:47;;;;;;;;;;;;;;;31.60;79.19;98828.00;5049965;28;20012;-54
2022/07/26 10:08:12;;;;;;;;;;;;;;;30.99;77.58;98836.25;5048674;28;20376;-55
2022/07/26 10:10:43;;;;;;;;;;;;;;;31.18;72.81;98837.53;5051165;28;20251;-55
2022/07/26 10:13:08;;;;;;;;;;;;;;;30.62;71.04;98839.81;5050225;28;20402;-54
2022/07/26 10:15:36;;;;;;;;;;;;;;;29.05;79.98;98843.63;5048715;28;19927;-55
2022/07/26 10:18:03;;;;;;;;;;;;;;;28.27;81.85;98831.84;5051949;28;20420;-54
2022/07/26 10:20:39;;;;;;;;;;;;;;;29.21;80.68;98834.81;5049122;28;19920;-55
2022/07/26 10:23:25;;;;;;;;;;;;;;;29.76;78.85;98845.31;5049225;28;19977;-55
2022/07/26 10:25:50;;;;;;;;;;;;;;;29.05;80.34;98863.03;5051728;28;19964;-55
2022/07/26 10:28:21;;;;;;;;;;;;;;;27.28;83.15;98867.91;5053035;28;20043;-53
2022/07/26 10:30:47;;;;;;;;;;;;;;;26.31;95.24;98874.19;5051601;28;20057;-54
2022/07/26 10:33:12;;;;;;;;;;;;;;;26.17;97.26;98894.84;5055058;28;20374;-54
2022/07/26 10:35:39;;;;;;;;;;;;;;;25.64;100.00;98908.78;5053221;28;20460;-55
2022/07/26 10:38:04;;;;;;;;;;;;;;;27.15;100.00;98900.03;5055323;28;20022;-55
2022/07/26 10:40:29;;;;;;;;;;;;;;;26.17;100.00;98915.97;5054984;28;19920;-55
2022/07/26 10:43:13;;;;;;;;;;;;;;;26.26;100.00;98919.50;5056085;28;19920;-55
2022/07/26 10:45:39;;;;;;;;;;;;;;;27.42;100.00;98920.19;5053130;28;19933;-55
2022/07/26 10:48:14;;;;;;;;;;;;;;;27.10;99.22;98928.75;5055691;28;20529;-54
2022/07/26 10:50:44;;;;;;;;;;;;;;;26.31;100.00;98937.53;5055542;28;20518;-55
2022/07/26 10:53:10;;;;;;;;;;;;;;;26.84;100.00;98934.84;5055775;28;19970;-55
2022/07/26 10:55:45;;;;;;;;;;;;;;;27.60;98.44;98925.38;5052835;28;19921;-55
2022/07/26 10:58:11;;;;;;;;;;;;;;;27.62;96.38;98933.13;5053467;28;19927;-55
2022/07/26 11:00:36;;;;;;;;;;;;;;;28.18;93.92;98920.25;5052859;28;19925;-55
2022/07/26 11:03:01;;;;;;;;;;;;;;;28.92;95.18;98921.91;5055676;28;19927;-55
2022/07/26 11:05:29;;;;;;;;;;;;;;;28.80;93.54;98927.72;5054352;28;19921;-55
2022/07/26 11:08:07;;;;;;;;;;;;;;;28.90;91.42;98929.19;5053568;28;19971;-54
2022/07/26 11:10:40;;;;;;;;;;;;;;;29.36;88.69;98929.41;5053404;28;20003;-54
2022/07/26 11:13:08;;;;;;;;;;;;;;;29.69;88.98;98931.13;5051974;28;20389;-55
2022/07/26 11:15:34;;;;;;;;;;;;;;;30.39;86.11;98925.72;5052721;28;19927;-55
2022/07/26 11:18:09;;;;;;;;;;;;;;;28.81;89.94;98924.03;5052898;28;19951;-55
2022/07/26 11:20:34;;;;;;;;;;;;;;;28.39;89.06;98930.34;5053353;28;20607;-52
2022/07/26 11:22:59;;;;;;;;;;;;;;;28.53;90.51;98937.66;5053840;28;19977;-55
2022/07/26 11:25:25;;;;;;;;;;;;;;;27.92;92.02;98940.53;5054005;28;20537;-55
2022/07/26 11:27:59;;;;;;;;;;;;;;;26.86;99.81;98948.72;5050478;28;21006;-55
2022/07/26 11:30:24;;;;;;;;;;;;;;;27.08;100.00;98952.69;5052979;28;19974;-54
2022/07/26 11:32:53;;;;;;;;;;;;;;;26.73;100.00;98963.31;5053090;28;20621;-54
2022/07/26 11:35:18;;;;;;;;;;;;;;;26.44;100.00;98959.13;5054509;28;19962;-54
2022/07/26 11:37:56;;;;;;;;;;;;;;;27.02;100.00;98955.94;5053773;28;19920;-55
2022/07/26 11:40:40;;;;;;;;;;;;;;;27.74;98.02;98948.56;5054698;28;19920;-54
2022/07/26 11:43:05;;;;;;;;;;;;;;;28.88;90.88;98933.00;5053844;28;19924;-56
2022/07/26 11:45:30;;;;;;;;;;;;;;;28.49;92.81;98936.34;5052521;28;19942;-55
2022/07/26 11:47:56;;;;;;;;;;;;;;;29.65;92.31;98937.75;5052819;28;19924;-56
2022/07/26 11:50:22;;;;;;;;;;;;;;;28.11;91.86;98942.06;5052359;28;19926;-56
2022/07/26 11:52:47;;;;;;;;;;;;;;;27.33;100.00;98952.84;5053081;28;19921;-55
2022/07/26 11:55:12;;;;;;;;;;;;;;;28.48;93.68;98945.28;5053912;28;19920;-55
2022/07/26 11:57:37;;;;;;;;;;;;;;;28.28;96.01;98945.59;5052908;28;19935;-56
2022/07/26 12:00:03;;;;;;;;;;;;;;;26.53;100.00;98962.66;5053528;28;19999;-56
2022/07/26 12:02:29;;;;;;;;;;;;;;;26.34;100.00;98958.34;5052745;28;20043;-55
2022/07/26 12:05:14;;;;;;;;;;;;;;;25.98;100.00;98966.22;5053880;28;19967;-55
2022/07/26 12:07:51;;;;;;;;;;;;;;;27.46;100.00;98958.53;5053288;28;19931;-56
2022/07/26 12:10:16;;;;;;;;;;;;;;;27.68;100.00;98958.97;5053352;28;19967;-55
2022/07/26 12:12:41;;;;;;;;;;;;;;;27.38;100.00;98963.78;5052064;28;20016;-55
2022/07/26 12:15:07;;;;;;;;;;;;;;;26.87;100.00;98960.97;5053874;28;19916;-54
2022/07/26 12:17:32;;;;;;;;;;;;;;;27.29;100.00;98954.97;5051707;28;19920;-55
2022/07/26 12:20:13;;;;;;;;;;;;;;;28.04;97.15;98954.31;5050924;28;19920;-54
2022/07/26 12:22:38;;;;;;;;;;;;;;;26.95;100.00;98968.13;5051933;28;20420;-55
2022/07/26 12:25:04;;;;;;;;;;;;;;;25.85;100.00;98975.31;5053587;28;20011;-53
2022/07/26 12:27:29;;;;;;;;;;;;;;;25.93;100.00;98974.59;5051013;28;19963;-55
2022/07/26 12:30:12;;;;;;;;;;;;;;;25.83;100.00;98979.06;5034207;28;19920;-54
2022/07/26 12:32:38;;;;;;;;;;;;;;;26.27;100.00;98969.53;5050641;28;20022;-55
2022/07/26 12:35:26;;;;;;;;;;;;;;;25.52;100.00;98983.78;5053447;28;19917;-55